sensor_id;sensor_type;location;lat;lon;timestamp;P1;durP1;ratioP1;P2;durP2;ratioP2
57071;SDS011;42956;51.366;11.298;2023-08-08T00:01:25;6.30;;;2.70;;
57071;SDS011;42956;51.366;11.298;2023-08-08T00:03:55;4.28;;;2.55;;
57071;SDS011;42956;51.366;11.298;2023-08-08T00:06:25;9.23;;;2.50;;
57071;SDS011;42956;51.366;11.298;2023-08-08T00:08:55;6.07;;;2.00;;
57071;SDS011;42956;51.366;11.298;2023-08-08T00:11:28;4.55;;;2.13;;
57071;SDS011;42956;51.366;11.298;2023-08-08T00:13:58;5.22;;;2.50;;
57071;SDS011;42956;51.366;11.298;2023-08-08T00:16:28;11.38;;;2.83;;
57071;SDS011;42956;51.366;11.298;2023-08-08T00:19:00;4.15;;;2.63;;
57071;SDS011;42956;51.366;11.298;2023-08-08T00:21:30;7.10;;;2.72;;
57071;SDS011;42956;51.366;11.298;2023-08-08T00:24:02;2.90;;;2.28;;
57071;SDS011;42956;51.366;11.298;2023-08-08T00:26:38;4.05;;;2.22;;
57071;SDS011;42956;51.366;11.298;2023-08-08T00:29:12;4.82;;;2.05;;
57071;SDS011;42956;51.366;11.298;2023-08-08T00:31:44;5.80;;;2.00;;
57071;SDS011;42956;51.366;11.298;2023-08-08T00:34:15;7.22;;;2.70;;
57071;SDS011;42956;51.366;11.298;2023-08-08T00:36:45;4.03;;;2.20;;
57071;SDS011;42956;51.366;11.298;2023-08-08T00:39:19;5.43;;;2.17;;
57071;SDS011;42956;51.366;11.298;2023-08-08T00:41:52;4.43;;;2.30;;
57071;SDS011;42956;51.366;11.298;2023-08-08T00:44:23;4.40;;;1.90;;
57071;SDS011;42956;51.366;11.298;2023-08-08T00:46:53;3.20;;;1.77;;
57071;SDS011;42956;51.366;11.298;2023-08-08T00:49:27;6.53;;;2.95;;
57071;SDS011;42956;51.366;11.298;2023-08-08T00:51:57;11.70;;;2.35;;
57071;SDS011;42956;51.366;11.298;2023-08-08T00:54:27;4.10;;;2.17;;
57071;SDS011;42956;51.366;11.298;2023-08-08T00:57:00;6.60;;;2.63;;
57071;SDS011;42956;51.366;11.298;2023-08-08T00:59:30;5.80;;;2.55;;
57071;SDS011;42956;51.366;11.298;2023-08-08T01:02:01;6.93;;;2.50;;
57071;SDS011;42956;51.366;11.298;2023-08-08T01:04:31;5.60;;;2.47;;
57071;SDS011;42956;51.366;11.298;2023-08-08T01:07:04;6.43;;;2.03;;
57071;SDS011;42956;51.366;11.298;2023-08-08T01:12:44;2.38;;;2.10;;
57071;SDS011;42956;51.366;11.298;2023-08-08T01:15:15;9.30;;;2.72;;
57071;SDS011;42956;51.366;11.298;2023-08-08T01:17:45;4.90;;;2.75;;
57071;SDS011;42956;51.366;11.298;2023-08-08T01:20:16;7.28;;;2.90;;
57071;SDS011;42956;51.366;11.298;2023-08-08T01:22:48;12.00;;;2.60;;
57071;SDS011;42956;51.366;11.298;2023-08-08T01:25:23;2.53;;;2.00;;
57071;SDS011;42956;51.366;11.298;2023-08-08T01:27:53;4.93;;;2.30;;
57071;SDS011;42956;51.366;11.298;2023-08-08T01:30:23;4.43;;;2.10;;
57071;SDS011;42956;51.366;11.298;2023-08-08T01:32:53;3.83;;;1.95;;
57071;SDS011;42956;51.366;11.298;2023-08-08T01:35:23;4.80;;;2.45;;
57071;SDS011;42956;51.366;11.298;2023-08-08T01:37:56;6.13;;;2.60;;
57071;SDS011;42956;51.366;11.298;2023-08-08T01:40:33;8.23;;;2.42;;
57071;SDS011;42956;51.366;11.298;2023-08-08T01:43:05;6.28;;;2.83;;
57071;SDS011;42956;51.366;11.298;2023-08-08T01:45:35;6.63;;;1.95;;
57071;SDS011;42956;51.366;11.298;2023-08-08T01:48:06;8.95;;;2.40;;
57071;SDS011;42956;51.366;11.298;2023-08-08T01:50:40;3.25;;;2.28;;
57071;SDS011;42956;51.366;11.298;2023-08-08T01:53:09;5.88;;;1.90;;
57071;SDS011;42956;51.366;11.298;2023-08-08T01:55:42;5.65;;;2.30;;
57071;SDS011;42956;51.366;11.298;2023-08-08T01:58:12;3.10;;;2.33;;
57071;SDS011;42956;51.366;11.298;2023-08-08T02:00:42;4.72;;;2.55;;
57071;SDS011;42956;51.366;11.298;2023-08-08T02:03:13;4.05;;;2.30;;
57071;SDS011;42956;51.366;11.298;2023-08-08T02:05:43;5.32;;;2.60;;
57071;SDS011;42956;51.366;11.298;2023-08-08T02:08:10;10.40;;;2.90;;
57071;SDS011;42956;51.366;11.298;2023-08-08T02:10:46;4.00;;;1.83;;
57071;SDS011;42956;51.366;11.298;2023-08-08T02:13:19;4.57;;;2.17;;
57071;SDS011;42956;51.366;11.298;2023-08-08T02:15:49;5.30;;;2.58;;
57071;SDS011;42956;51.366;11.298;2023-08-08T02:18:20;4.90;;;2.28;;
57071;SDS011;42956;51.366;11.298;2023-08-08T02:20:50;4.18;;;2.05;;
57071;SDS011;42956;51.366;11.298;2023-08-08T02:23:20;2.50;;;1.95;;
57071;SDS011;42956;51.366;11.298;2023-08-08T02:25:53;3.63;;;2.35;;
57071;SDS011;42956;51.366;11.298;2023-08-08T02:28:23;8.77;;;2.55;;
57071;SDS011;42956;51.366;11.298;2023-08-08T02:30:53;3.53;;;2.25;;
57071;SDS011;42956;51.366;11.298;2023-08-08T02:33:23;5.25;;;2.20;;
57071;SDS011;42956;51.366;11.298;2023-08-08T02:35:53;2.92;;;2.00;;
57071;SDS011;42956;51.366;11.298;2023-08-08T02:38:23;5.28;;;2.70;;
57071;SDS011;42956;51.366;11.298;2023-08-08T02:40:56;4.03;;;2.00;;
57071;SDS011;42956;51.366;11.298;2023-08-08T02:43:26;5.43;;;2.17;;
57071;SDS011;42956;51.366;11.298;2023-08-08T02:45:56;2.80;;;2.17;;
57071;SDS011;42956;51.366;11.298;2023-08-08T02:48:26;2.92;;;2.13;;
57071;SDS011;42956;51.366;11.298;2023-08-08T02:50:56;5.10;;;3.22;;
57071;SDS011;42956;51.366;11.298;2023-08-08T02:53:26;6.50;;;2.00;;
57071;SDS011;42956;51.366;11.298;2023-08-08T02:55:58;3.47;;;2.50;;
57071;SDS011;42956;51.366;11.298;2023-08-08T02:58:28;4.43;;;2.40;;
57071;SDS011;42956;51.366;11.298;2023-08-08T03:00:58;9.55;;;2.75;;
57071;SDS011;42956;51.366;11.298;2023-08-08T03:03:29;6.30;;;2.65;;
57071;SDS011;42956;51.366;11.298;2023-08-08T03:06:00;5.68;;;2.50;;
57071;SDS011;42956;51.366;11.298;2023-08-08T03:08:30;4.40;;;2.60;;
57071;SDS011;42956;51.366;11.298;2023-08-08T03:11:03;4.80;;;2.30;;
57071;SDS011;42956;51.366;11.298;2023-08-08T03:13:33;3.75;;;2.30;;
57071;SDS011;42956;51.366;11.298;2023-08-08T03:16:04;4.53;;;2.33;;
57071;SDS011;42956;51.366;11.298;2023-08-08T03:18:34;7.15;;;3.33;;
57071;SDS011;42956;51.366;11.298;2023-08-08T03:21:04;4.40;;;2.60;;
57071;SDS011;42956;51.366;11.298;2023-08-08T03:23:34;7.47;;;2.30;;
57071;SDS011;42956;51.366;11.298;2023-08-08T03:26:09;3.45;;;2.28;;
57071;SDS011;42956;51.366;11.298;2023-08-08T03:28:39;4.47;;;2.42;;
57071;SDS011;42956;51.366;11.298;2023-08-08T03:31:09;7.35;;;2.80;;
57071;SDS011;42956;51.366;11.298;2023-08-08T03:33:39;4.05;;;2.55;;
57071;SDS011;42956;51.366;11.298;2023-08-08T03:36:09;3.95;;;2.60;;
57071;SDS011;42956;51.366;11.298;2023-08-08T03:38:39;5.78;;;2.70;;
57071;SDS011;42956;51.366;11.298;2023-08-08T03:41:14;6.45;;;2.88;;
57071;SDS011;42956;51.366;11.298;2023-08-08T03:43:44;6.45;;;2.42;;
57071;SDS011;42956;51.366;11.298;2023-08-08T03:46:14;12.07;;;3.05;;
57071;SDS011;42956;51.366;11.298;2023-08-08T03:48:44;4.15;;;2.10;;
57071;SDS011;42956;51.366;11.298;2023-08-08T03:51:14;3.63;;;2.65;;
57071;SDS011;42956;51.366;11.298;2023-08-08T03:53:44;4.60;;;2.25;;
57071;SDS011;42956;51.366;11.298;2023-08-08T03:56:16;4.80;;;2.75;;
57071;SDS011;42956;51.366;11.298;2023-08-08T03:58:46;8.75;;;2.92;;
57071;SDS011;42956;51.366;11.298;2023-08-08T04:01:16;4.20;;;2.10;;
57071;SDS011;42956;51.366;11.298;2023-08-08T04:03:46;6.13;;;2.67;;
57071;SDS011;42956;51.366;11.298;2023-08-08T04:06:19;3.45;;;1.98;;
57071;SDS011;42956;51.366;11.298;2023-08-08T04:08:49;5.28;;;2.47;;
57071;SDS011;42956;51.366;11.298;2023-08-08T04:11:22;3.75;;;2.03;;
57071;SDS011;42956;51.366;11.298;2023-08-08T04:13:52;4.88;;;2.45;;
57071;SDS011;42956;51.366;11.298;2023-08-08T04:16:22;3.42;;;2.10;;
57071;SDS011;42956;51.366;11.298;2023-08-08T04:18:52;4.05;;;2.20;;
57071;SDS011;42956;51.366;11.298;2023-08-08T04:21:22;9.80;;;2.70;;
57071;SDS011;42956;51.366;11.298;2023-08-08T04:23:54;3.55;;;2.55;;
57071;SDS011;42956;51.366;11.298;2023-08-08T04:26:26;4.97;;;2.58;;
57071;SDS011;42956;51.366;11.298;2023-08-08T04:28:56;4.22;;;2.55;;
57071;SDS011;42956;51.366;11.298;2023-08-08T04:31:26;3.55;;;2.55;;
57071;SDS011;42956;51.366;11.298;2023-08-08T04:33:56;3.20;;;2.40;;
57071;SDS011;42956;51.366;11.298;2023-08-08T04:36:28;3.08;;;2.20;;
57071;SDS011;42956;51.366;11.298;2023-08-08T04:38:58;7.72;;;2.90;;
57071;SDS011;42956;51.366;11.298;2023-08-08T04:41:31;8.13;;;3.00;;
57071;SDS011;42956;51.366;11.298;2023-08-08T04:44:01;8.55;;;2.58;;
57071;SDS011;42956;51.366;11.298;2023-08-08T04:46:31;4.80;;;2.38;;
57071;SDS011;42956;51.366;11.298;2023-08-08T04:49:01;3.90;;;2.35;;
57071;SDS011;42956;51.366;11.298;2023-08-08T04:51:31;7.03;;;2.53;;
57071;SDS011;42956;51.366;11.298;2023-08-08T04:54:01;4.43;;;2.30;;
57071;SDS011;42956;51.366;11.298;2023-08-08T04:56:33;5.97;;;2.63;;
57071;SDS011;42956;51.366;11.298;2023-08-08T04:59:10;3.80;;;2.55;;
57071;SDS011;42956;51.366;11.298;2023-08-08T05:01:54;4.38;;;2.20;;
57071;SDS011;42956;51.366;11.298;2023-08-08T05:04:25;8.30;;;2.70;;
57071;SDS011;42956;51.366;11.298;2023-08-08T05:06:55;7.30;;;2.50;;
57071;SDS011;42956;51.366;11.298;2023-08-08T05:09:25;5.28;;;2.83;;
57071;SDS011;42956;51.366;11.298;2023-08-08T05:11:58;3.30;;;2.40;;
57071;SDS011;42956;51.366;11.298;2023-08-08T05:14:30;5.13;;;2.22;;
57071;SDS011;42956;51.366;11.298;2023-08-08T05:17:01;6.72;;;2.78;;
57071;SDS011;42956;51.366;11.298;2023-08-08T05:19:31;6.40;;;2.90;;
57071;SDS011;42956;51.366;11.298;2023-08-08T05:22:01;4.55;;;1.98;;
57071;SDS011;42956;51.366;11.298;2023-08-08T05:24:31;5.18;;;2.15;;
57071;SDS011;42956;51.366;11.298;2023-08-08T05:27:05;5.82;;;2.15;;
57071;SDS011;42956;51.366;11.298;2023-08-08T05:29:38;3.92;;;2.38;;
57071;SDS011;42956;51.366;11.298;2023-08-08T05:32:08;3.53;;;2.13;;
57071;SDS011;42956;51.366;11.298;2023-08-08T05:34:38;2.58;;;2.05;;
57071;SDS011;42956;51.366;11.298;2023-08-08T05:37:08;3.88;;;1.55;;
57071;SDS011;42956;51.366;11.298;2023-08-08T05:39:44;4.15;;;1.60;;
57071;SDS011;42956;51.366;11.298;2023-08-08T05:42:17;2.83;;;2.20;;
57071;SDS011;42956;51.366;11.298;2023-08-08T05:44:47;4.00;;;2.00;;
57071;SDS011;42956;51.366;11.298;2023-08-08T05:47:17;5.47;;;1.80;;
57071;SDS011;42956;51.366;11.298;2023-08-08T05:49:47;3.38;;;1.70;;
57071;SDS011;42956;51.366;11.298;2023-08-08T05:52:17;5.13;;;2.22;;
57071;SDS011;42956;51.366;11.298;2023-08-08T05:54:48;3.50;;;1.85;;
57071;SDS011;42956;51.366;11.298;2023-08-08T05:57:20;3.10;;;1.45;;
57071;SDS011;42956;51.366;11.298;2023-08-08T05:59:51;2.25;;;1.67;;
57071;SDS011;42956;51.366;11.298;2023-08-08T06:02:21;3.20;;;1.67;;
57071;SDS011;42956;51.366;11.298;2023-08-08T06:04:50;1.55;;;1.45;;
57071;SDS011;42956;51.366;11.298;2023-08-08T06:07:20;3.38;;;1.50;;
57071;SDS011;42956;51.366;11.298;2023-08-08T06:09:50;2.83;;;1.23;;
57071;SDS011;42956;51.366;11.298;2023-08-08T06:12:23;1.90;;;1.70;;
57071;SDS011;42956;51.366;11.298;2023-08-08T06:14:53;2.80;;;1.73;;
57071;SDS011;42956;51.366;11.298;2023-08-08T06:17:23;3.13;;;2.00;;
57071;SDS011;42956;51.366;11.298;2023-08-08T06:19:53;1.77;;;1.40;;
57071;SDS011;42956;51.366;11.298;2023-08-08T06:22:29;3.33;;;1.25;;
57071;SDS011;42956;51.366;11.298;2023-08-08T06:24:59;3.15;;;1.80;;
57071;SDS011;42956;51.366;11.298;2023-08-08T06:27:32;5.05;;;1.70;;
57071;SDS011;42956;51.366;11.298;2023-08-08T06:30:03;2.88;;;1.92;;
57071;SDS011;42956;51.366;11.298;2023-08-08T06:32:33;1.67;;;1.40;;
57071;SDS011;42956;51.366;11.298;2023-08-08T06:35:03;2.40;;;1.90;;
57071;SDS011;42956;51.366;11.298;2023-08-08T06:37:35;1.67;;;1.40;;
57071;SDS011;42956;51.366;11.298;2023-08-08T06:40:06;3.33;;;1.27;;
57071;SDS011;42956;51.366;11.298;2023-08-08T06:42:39;3.88;;;1.42;;
57071;SDS011;42956;51.366;11.298;2023-08-08T06:45:09;2.75;;;1.40;;
57071;SDS011;42956;51.366;11.298;2023-08-08T06:47:39;2.13;;;1.63;;
57071;SDS011;42956;51.366;11.298;2023-08-08T06:50:09;4.97;;;1.27;;
57071;SDS011;42956;51.366;11.298;2023-08-08T06:52:39;4.93;;;1.95;;
57071;SDS011;42956;51.366;11.298;2023-08-08T06:55:09;2.72;;;1.95;;
57071;SDS011;42956;51.366;11.298;2023-08-08T06:57:42;2.30;;;1.67;;
57071;SDS011;42956;51.366;11.298;2023-08-08T07:00:12;3.58;;;1.60;;
57071;SDS011;42956;51.366;11.298;2023-08-08T07:02:43;1.98;;;1.55;;
57071;SDS011;42956;51.366;11.298;2023-08-08T07:05:13;3.30;;;1.85;;
57071;SDS011;42956;51.366;11.298;2023-08-08T07:07:47;2.50;;;1.60;;
57071;SDS011;42956;51.366;11.298;2023-08-08T07:10:17;2.88;;;1.52;;
57071;SDS011;42956;51.366;11.298;2023-08-08T07:12:49;2.95;;;1.67;;
57071;SDS011;42956;51.366;11.298;2023-08-08T07:15:19;3.63;;;2.00;;
57071;SDS011;42956;51.366;11.298;2023-08-08T07:17:49;4.13;;;1.70;;
57071;SDS011;42956;51.366;11.298;2023-08-08T07:20:19;3.40;;;2.13;;
57071;SDS011;42956;51.366;11.298;2023-08-08T07:22:49;2.55;;;1.90;;
57071;SDS011;42956;51.366;11.298;2023-08-08T07:25:19;3.97;;;1.65;;
57071;SDS011;42956;51.366;11.298;2023-08-08T07:27:52;4.03;;;2.13;;
57071;SDS011;42956;51.366;11.298;2023-08-08T07:30:22;4.97;;;2.45;;
57071;SDS011;42956;51.366;11.298;2023-08-08T07:32:52;2.45;;;1.85;;
57071;SDS011;42956;51.366;11.298;2023-08-08T07:35:22;4.28;;;1.98;;
57071;SDS011;42956;51.366;11.298;2023-08-08T07:37:52;3.33;;;2.03;;
57071;SDS011;42956;51.366;11.298;2023-08-08T07:40:22;2.50;;;2.10;;
57071;SDS011;42956;51.366;11.298;2023-08-08T07:42:54;2.42;;;2.20;;
57071;SDS011;42956;51.366;11.298;2023-08-08T07:45:24;4.90;;;2.25;;
57071;SDS011;42956;51.366;11.298;2023-08-08T07:47:54;3.97;;;2.15;;
57071;SDS011;42956;51.366;11.298;2023-08-08T07:50:24;3.47;;;1.98;;
57071;SDS011;42956;51.366;11.298;2023-08-08T07:52:53;8.48;;;2.55;;
57071;SDS011;42956;51.366;11.298;2023-08-08T07:55:23;3.47;;;2.45;;
57071;SDS011;42956;51.366;11.298;2023-08-08T07:57:56;4.35;;;1.98;;
57071;SDS011;42956;51.366;11.298;2023-08-08T08:00:26;10.15;;;2.10;;
57071;SDS011;42956;51.366;11.298;2023-08-08T08:02:57;4.13;;;2.08;;
57071;SDS011;42956;51.366;11.298;2023-08-08T08:05:27;4.93;;;2.15;;
57071;SDS011;42956;51.366;11.298;2023-08-08T08:07:57;4.05;;;2.30;;
57071;SDS011;42956;51.366;11.298;2023-08-08T08:10:27;8.07;;;2.50;;
57071;SDS011;42956;51.366;11.298;2023-08-08T08:13:00;5.13;;;2.58;;
57071;SDS011;42956;51.366;11.298;2023-08-08T08:15:30;4.38;;;2.35;;
57071;SDS011;42956;51.366;11.298;2023-08-08T08:18:00;3.47;;;2.28;;
57071;SDS011;42956;51.366;11.298;2023-08-08T08:20:30;9.68;;;2.55;;
57071;SDS011;42956;51.366;11.298;2023-08-08T08:23:01;7.38;;;2.50;;
57071;SDS011;42956;51.366;11.298;2023-08-08T08:25:30;5.00;;;2.78;;
57071;SDS011;42956;51.366;11.298;2023-08-08T08:28:04;7.00;;;2.53;;
57071;SDS011;42956;51.366;11.298;2023-08-08T08:30:33;2.58;;;1.90;;
57071;SDS011;42956;51.366;11.298;2023-08-08T08:33:04;2.85;;;2.03;;
57071;SDS011;42956;51.366;11.298;2023-08-08T08:35:34;4.43;;;2.22;;
57071;SDS011;42956;51.366;11.298;2023-08-08T08:38:04;3.60;;;2.63;;
57071;SDS011;42956;51.366;11.298;2023-08-08T08:40:36;4.53;;;2.03;;
57071;SDS011;42956;51.366;11.298;2023-08-08T08:43:08;5.22;;;2.13;;
57071;SDS011;42956;51.366;11.298;2023-08-08T08:45:41;7.80;;;2.38;;
57071;SDS011;42956;51.366;11.298;2023-08-08T08:48:12;4.15;;;2.00;;
57071;SDS011;42956;51.366;11.298;2023-08-08T08:50:45;3.95;;;2.50;;
57071;SDS011;42956;51.366;11.298;2023-08-08T08:53:16;4.93;;;2.42;;
57071;SDS011;42956;51.366;11.298;2023-08-08T08:55:46;4.15;;;2.13;;
57071;SDS011;42956;51.366;11.298;2023-08-08T08:58:19;6.85;;;2.38;;
57071;SDS011;42956;51.366;11.298;2023-08-08T09:00:50;3.05;;;1.92;;
57071;SDS011;42956;51.366;11.298;2023-08-08T09:03:21;3.55;;;1.85;;
57071;SDS011;42956;51.366;11.298;2023-08-08T09:05:51;3.30;;;2.00;;
57071;SDS011;42956;51.366;11.298;2023-08-08T09:08:21;3.95;;;2.40;;
57071;SDS011;42956;51.366;11.298;2023-08-08T09:11:18;2.58;;;1.85;;
57071;SDS011;42956;51.366;11.298;2023-08-08T09:13:51;4.75;;;2.10;;
57071;SDS011;42956;51.366;11.298;2023-08-08T09:16:21;5.95;;;2.53;;
57071;SDS011;42956;51.366;11.298;2023-08-08T09:18:51;2.53;;;1.90;;
57071;SDS011;42956;51.366;11.298;2023-08-08T09:21:21;4.30;;;2.47;;
57071;SDS011;42956;51.366;11.298;2023-08-08T09:23:51;2.85;;;1.95;;
57071;SDS011;42956;51.366;11.298;2023-08-08T09:26:21;4.63;;;2.05;;
57071;SDS011;42956;51.366;11.298;2023-08-08T09:28:54;4.00;;;2.35;;
57071;SDS011;42956;51.366;11.298;2023-08-08T09:31:24;7.25;;;2.00;;
57071;SDS011;42956;51.366;11.298;2023-08-08T09:33:54;4.80;;;1.90;;
57071;SDS011;42956;51.366;11.298;2023-08-08T09:36:24;3.67;;;2.05;;
57071;SDS011;42956;51.366;11.298;2023-08-08T09:41:27;3.58;;;2.47;;
57071;SDS011;42956;51.366;11.298;2023-08-08T09:44:00;8.48;;;2.60;;
57071;SDS011;42956;51.366;11.298;2023-08-08T09:46:30;3.80;;;2.10;;
57071;SDS011;42956;51.366;11.298;2023-08-08T09:49:00;4.32;;;2.22;;
57071;SDS011;42956;51.366;11.298;2023-08-08T09:51:31;3.88;;;2.45;;
57071;SDS011;42956;51.366;11.298;2023-08-08T09:54:01;7.20;;;2.28;;
57071;SDS011;42956;51.366;11.298;2023-08-08T09:56:31;5.30;;;2.55;;
57071;SDS011;42956;51.366;11.298;2023-08-08T09:59:04;2.47;;;2.17;;
57071;SDS011;42956;51.366;11.298;2023-08-08T10:01:35;2.75;;;2.03;;
57071;SDS011;42956;51.366;11.298;2023-08-08T10:04:06;3.60;;;1.80;;
57071;SDS011;42956;51.366;11.298;2023-08-08T10:06:36;6.47;;;2.33;;
57071;SDS011;42956;51.366;11.298;2023-08-08T10:09:06;5.30;;;1.83;;
57071;SDS011;42956;51.366;11.298;2023-08-08T10:11:36;6.53;;;2.83;;
57071;SDS011;42956;51.366;11.298;2023-08-08T10:14:11;8.30;;;2.60;;
57071;SDS011;42956;51.366;11.298;2023-08-08T10:19:12;7.70;;;2.22;;
57071;SDS011;42956;51.366;11.298;2023-08-08T10:21:43;4.95;;;2.22;;
57071;SDS011;42956;51.366;11.298;2023-08-08T10:24:19;4.53;;;2.47;;
57071;SDS011;42956;51.366;11.298;2023-08-08T10:26:52;7.67;;;2.50;;
57071;SDS011;42956;51.366;11.298;2023-08-08T10:32:42;6.10;;;2.65;;
57071;SDS011;42956;51.366;11.298;2023-08-08T10:35:14;9.23;;;2.70;;
57071;SDS011;42956;51.366;11.298;2023-08-08T10:37:52;4.45;;;2.65;;
57071;SDS011;42956;51.366;11.298;2023-08-08T10:40:31;6.10;;;2.50;;
57071;SDS011;42956;51.366;11.298;2023-08-08T10:43:09;4.10;;;2.38;;
57071;SDS011;42956;51.366;11.298;2023-08-08T10:45:41;7.95;;;2.53;;
57071;SDS011;42956;51.366;11.298;2023-08-08T10:48:22;3.20;;;2.50;;
57071;SDS011;42956;51.366;11.298;2023-08-08T10:50:55;5.60;;;2.38;;
57071;SDS011;42956;51.366;11.298;2023-08-08T10:53:29;4.28;;;2.38;;
57071;SDS011;42956;51.366;11.298;2023-08-08T10:55:59;4.63;;;2.30;;
57071;SDS011;42956;51.366;11.298;2023-08-08T10:58:36;4.60;;;2.80;;
57071;SDS011;42956;51.366;11.298;2023-08-08T11:01:04;5.15;;;2.45;;
57071;SDS011;42956;51.366;11.298;2023-08-08T11:03:39;2.67;;;2.30;;
57071;SDS011;42956;51.366;11.298;2023-08-08T11:06:10;3.50;;;2.40;;
57071;SDS011;42956;51.366;11.298;2023-08-08T11:08:40;5.47;;;2.78;;
57071;SDS011;42956;51.366;11.298;2023-08-08T11:11:11;3.80;;;2.80;;
57071;SDS011;42956;51.366;11.298;2023-08-08T11:13:42;4.03;;;2.55;;
57071;SDS011;42956;51.366;11.298;2023-08-08T11:16:14;5.25;;;2.55;;
57071;SDS011;42956;51.366;11.298;2023-08-08T11:18:46;6.25;;;3.05;;
57071;SDS011;42956;51.366;11.298;2023-08-08T11:23:47;5.35;;;2.78;;
57071;SDS011;42956;51.366;11.298;2023-08-08T11:26:17;5.97;;;2.85;;
57071;SDS011;42956;51.366;11.298;2023-08-08T11:28:51;4.03;;;2.50;;
57071;SDS011;42956;51.366;11.298;2023-08-08T11:33:53;3.92;;;2.00;;
57071;SDS011;42956;51.366;11.298;2023-08-08T11:36:23;7.15;;;3.05;;
57071;SDS011;42956;51.366;11.298;2023-08-08T11:38:53;6.50;;;2.67;;
57071;SDS011;42956;51.366;11.298;2023-08-08T11:41:24;5.10;;;2.45;;
57071;SDS011;42956;51.366;11.298;2023-08-08T11:43:54;4.15;;;2.22;;
57071;SDS011;42956;51.366;11.298;2023-08-08T11:46:25;3.70;;;2.38;;
57071;SDS011;42956;51.366;11.298;2023-08-08T11:49:01;3.42;;;2.65;;
57071;SDS011;42956;51.366;11.298;2023-08-08T11:51:31;5.05;;;2.75;;
57071;SDS011;42956;51.366;11.298;2023-08-08T11:54:02;7.80;;;2.80;;
57071;SDS011;42956;51.366;11.298;2023-08-08T11:56:32;3.47;;;2.85;;
57071;SDS011;42956;51.366;11.298;2023-08-08T11:59:04;12.35;;;2.95;;
57071;SDS011;42956;51.366;11.298;2023-08-08T12:01:35;5.75;;;3.70;;
57071;SDS011;42956;51.366;11.298;2023-08-08T12:04:08;9.25;;;3.75;;
57071;SDS011;42956;51.366;11.298;2023-08-08T12:06:39;3.15;;;2.50;;
57071;SDS011;42956;51.366;11.298;2023-08-08T12:09:11;5.22;;;2.65;;
57071;SDS011;42956;51.366;11.298;2023-08-08T12:11:41;3.40;;;2.83;;
57071;SDS011;42956;51.366;11.298;2023-08-08T12:14:12;4.55;;;2.65;;
57071;SDS011;42956;51.366;11.298;2023-08-08T12:16:42;4.18;;;2.25;;
57071;SDS011;42956;51.366;11.298;2023-08-08T12:19:17;7.32;;;3.53;;
57071;SDS011;42956;51.366;11.298;2023-08-08T12:21:48;5.43;;;2.97;;
57071;SDS011;42956;51.366;11.298;2023-08-08T12:24:18;5.50;;;2.90;;
57071;SDS011;42956;51.366;11.298;2023-08-08T12:26:48;4.93;;;3.63;;
57071;SDS011;42956;51.366;11.298;2023-08-08T12:29:18;3.60;;;2.35;;
57071;SDS011;42956;51.366;11.298;2023-08-08T12:31:48;5.50;;;2.78;;
57071;SDS011;42956;51.366;11.298;2023-08-08T12:34:21;3.92;;;3.15;;
57071;SDS011;42956;51.366;11.298;2023-08-08T12:36:51;6.55;;;3.35;;
57071;SDS011;42956;51.366;11.298;2023-08-08T12:39:21;4.43;;;2.95;;
57071;SDS011;42956;51.366;11.298;2023-08-08T12:41:51;6.15;;;2.97;;
57071;SDS011;42956;51.366;11.298;2023-08-08T12:44:23;4.30;;;3.00;;
57071;SDS011;42956;51.366;11.298;2023-08-08T12:46:54;8.27;;;2.97;;
57071;SDS011;42956;51.366;11.298;2023-08-08T12:49:27;3.50;;;2.78;;
57071;SDS011;42956;51.366;11.298;2023-08-08T12:51:57;4.57;;;2.50;;
57071;SDS011;42956;51.366;11.298;2023-08-08T12:54:27;3.53;;;2.83;;
57071;SDS011;42956;51.366;11.298;2023-08-08T12:56:57;4.47;;;2.78;;
57071;SDS011;42956;51.366;11.298;2023-08-08T12:59:28;3.17;;;2.88;;
57071;SDS011;42956;51.366;11.298;2023-08-08T13:01:58;4.95;;;2.20;;
57071;SDS011;42956;51.366;11.298;2023-08-08T13:04:31;5.82;;;3.17;;
57071;SDS011;42956;51.366;11.298;2023-08-08T13:07:01;11.10;;;4.15;;
57071;SDS011;42956;51.366;11.298;2023-08-08T13:09:31;10.43;;;3.05;;
57071;SDS011;42956;51.366;11.298;2023-08-08T13:12:01;3.30;;;3.00;;
57071;SDS011;42956;51.366;11.298;2023-08-08T13:14:31;6.05;;;2.92;;
57071;SDS011;42956;51.366;11.298;2023-08-08T13:17:01;3.45;;;2.63;;
57071;SDS011;42956;51.366;11.298;2023-08-08T13:19:33;5.88;;;2.67;;
57071;SDS011;42956;51.366;11.298;2023-08-08T13:22:03;7.90;;;2.90;;
57071;SDS011;42956;51.366;11.298;2023-08-08T13:24:33;6.85;;;3.40;;
57071;SDS011;42956;51.366;11.298;2023-08-08T13:27:04;6.13;;;3.40;;
57071;SDS011;42956;51.366;11.298;2023-08-08T13:29:33;6.78;;;3.55;;
57071;SDS011;42956;51.366;11.298;2023-08-08T13:32:04;6.15;;;3.78;;
57071;SDS011;42956;51.366;11.298;2023-08-08T13:34:36;5.38;;;3.35;;
57071;SDS011;42956;51.366;11.298;2023-08-08T13:37:06;6.53;;;4.25;;
57071;SDS011;42956;51.366;11.298;2023-08-08T13:39:36;6.25;;;3.72;;
57071;SDS011;42956;51.366;11.298;2023-08-08T13:42:06;9.07;;;4.45;;
57071;SDS011;42956;51.366;11.298;2023-08-08T13:44:36;5.18;;;3.78;;
57071;SDS011;42956;51.366;11.298;2023-08-08T13:47:06;7.57;;;4.30;;
57071;SDS011;42956;51.366;11.298;2023-08-08T13:49:39;10.23;;;4.03;;
57071;SDS011;42956;51.366;11.298;2023-08-08T13:52:09;8.15;;;3.33;;
57071;SDS011;42956;51.366;11.298;2023-08-08T13:54:39;5.55;;;3.50;;
57071;SDS011;42956;51.366;11.298;2023-08-08T13:57:09;2.72;;;2.50;;
57071;SDS011;42956;51.366;11.298;2023-08-08T13:59:41;5.43;;;3.15;;
57071;SDS011;42956;51.366;11.298;2023-08-08T14:02:11;3.63;;;2.00;;
57071;SDS011;42956;51.366;11.298;2023-08-08T14:04:44;5.75;;;2.72;;
57071;SDS011;42956;51.366;11.298;2023-08-08T14:07:14;7.70;;;2.65;;
57071;SDS011;42956;51.366;11.298;2023-08-08T14:09:44;3.30;;;2.40;;
57071;SDS011;42956;51.366;11.298;2023-08-08T14:12:14;5.32;;;2.38;;
57071;SDS011;42956;51.366;11.298;2023-08-08T14:14:44;5.45;;;2.50;;
57071;SDS011;42956;51.366;11.298;2023-08-08T14:17:13;4.90;;;2.92;;
57071;SDS011;42956;51.366;11.298;2023-08-08T14:19:46;5.03;;;2.67;;
57071;SDS011;42956;51.366;11.298;2023-08-08T14:22:16;4.72;;;2.10;;
57071;SDS011;42956;51.366;11.298;2023-08-08T14:24:46;4.78;;;2.10;;
57071;SDS011;42956;51.366;11.298;2023-08-08T14:27:16;1.95;;;1.77;;
57071;SDS011;42956;51.366;11.298;2023-08-08T14:29:49;2.53;;;2.00;;
57071;SDS011;42956;51.366;11.298;2023-08-08T14:32:22;3.97;;;1.70;;
57071;SDS011;42956;51.366;11.298;2023-08-08T14:34:54;4.20;;;2.33;;
57071;SDS011;42956;51.366;11.298;2023-08-08T14:37:25;3.08;;;1.98;;
57071;SDS011;42956;51.366;11.298;2023-08-08T14:39:55;7.43;;;1.95;;
57071;SDS011;42956;51.366;11.298;2023-08-08T14:42:25;4.55;;;1.90;;
57071;SDS011;42956;51.366;11.298;2023-08-08T14:44:55;6.68;;;2.42;;
57071;SDS011;42956;51.366;11.298;2023-08-08T14:47:25;2.63;;;2.10;;
57071;SDS011;42956;51.366;11.298;2023-08-08T14:49:58;5.85;;;2.35;;
57071;SDS011;42956;51.366;11.298;2023-08-08T14:52:28;6.43;;;2.00;;
57071;SDS011;42956;51.366;11.298;2023-08-08T14:54:57;5.80;;;2.92;;
57071;SDS011;42956;51.366;11.298;2023-08-08T14:57:28;3.65;;;2.03;;
57071;SDS011;42956;51.366;11.298;2023-08-08T14:59:58;4.30;;;2.47;;
57071;SDS011;42956;51.366;11.298;2023-08-08T15:02:28;4.72;;;2.00;;
57071;SDS011;42956;51.366;11.298;2023-08-08T15:05:00;3.42;;;2.47;;
57071;SDS011;42956;51.366;11.298;2023-08-08T15:07:30;3.75;;;2.08;;
57071;SDS011;42956;51.366;11.298;2023-08-08T15:10:01;4.97;;;2.60;;
57071;SDS011;42956;51.366;11.298;2023-08-08T15:12:30;7.63;;;2.58;;